<?xml version="1.0" encoding="UTF-8"?>
<gpx creator="Wikiloc - https://www.wikiloc.com" version="1.1" xmlns="http://www.topografix.com/GPX/1/1" xmlns:xsi="http://www.w3.org/2001/XMLSchema-instance" xsi:schemaLocation="http://www.topografix.com/GPX/1/1 http://www.topografix.com/GPX/1/1/gpx.xsd">
  <metadata>
    <name>Wikiloc - Paseo del loco - Presa del Embalse de Aguilar</name>
    <link href="https://www.wikiloc.com/walking-trails/paseo-del-loco-presa-del-embalse-de-aguilar-52753802">
      <text>Paseo del loco - Presa del Embalse de Aguilar - Wikiloc on Wikiloc</text>
    </link>
    <time>2020-07-12T13:22:12Z</time>
  </metadata>
  <wpt lat="42.792884" lon="-4.260132">
    <ele>895.9</ele>
    <time>2020-07-12T09:42:17Z</time>
    <name>Fuente de la Plaza de España</name>
    <cmt></cmt>
    <desc></desc>
  </wpt>
  <wpt lat="42.789923" lon="-4.258962">
    <ele>900.1</ele>
    <time>2020-07-12T09:48:02Z</time>
    <name>Paseo del Coto</name>
    <cmt></cmt>
    <desc></desc>
  </wpt>
  <wpt lat="42.791268" lon="-4.260596">
    <ele>890.6</ele>
    <time>2020-07-12T09:50:31Z</time>
    <name>Rio Pisuerga</name>
    <cmt></cmt>
    <desc></desc>
  </wpt>
  <wpt lat="42.791720" lon="-4.261435">
    <ele>895.4</ele>
    <time>2020-07-12T09:51:28Z</time>
    <name>Paseo del Loco</name>
    <cmt></cmt>
    <desc></desc>
  </wpt>
  <wpt lat="42.792090" lon="-4.269461">
    <ele>890.4</ele>
    <time>2020-07-12T10:07:27Z</time>
    <name>Paseo del punto limpio</name>
    <cmt></cmt>
    <desc></desc>
  </wpt>
  <wpt lat="42.794032" lon="-4.279505">
    <ele>898.1</ele>
    <time>2020-07-12T10:16:34Z</time>
    <name>Paseo del punto limpio</name>
    <cmt></cmt>
    <desc></desc>
  </wpt>
  <wpt lat="42.793261" lon="-4.283483">
    <ele>895.4</ele>
    <time>2020-07-12T10:24:03Z</time>
    <name>Foto</name>
    <cmt></cmt>
    <desc></desc>
  </wpt>
  <wpt lat="42.793826" lon="-4.286298">
    <ele>895.5</ele>
    <time>2020-07-12T10:27:06Z</time>
    <name>Presa del pantano de Aguilar</name>
    <cmt></cmt>
    <desc></desc>
  </wpt>
  <wpt lat="42.794132" lon="-4.286688">
    <ele>896.6</ele>
    <time>2020-07-12T10:28:15Z</time>
    <name>Presa del embalse</name>
    <cmt></cmt>
    <desc></desc>
  </wpt>
  <wpt lat="42.795364" lon="-4.285873">
    <ele>902.7</ele>
    <time>2020-07-12T10:30:40Z</time>
    <name>Paseo de los 5 caños</name>
    <cmt></cmt>
    <desc></desc>
  </wpt>
  <wpt lat="42.796013" lon="-4.276578">
    <ele>892.6</ele>
    <time>2020-07-12T11:01:56Z</time>
    <name>Panoramica</name>
    <cmt></cmt>
    <desc></desc>
  </wpt>
  <wpt lat="42.795613" lon="-4.271479">
    <ele>894.9</ele>
    <time>2020-07-12T11:07:45Z</time>
    <name>Monasterio Santa Maria La Real</name>
    <cmt></cmt>
    <desc></desc>
  </wpt>
  <wpt lat="42.793631" lon="-4.267547">
    <ele>897.4</ele>
    <time>2020-07-12T11:14:56Z</time>
    <name>Paseo de la Barbacana</name>
    <cmt></cmt>
    <desc></desc>
  </wpt>
  <wpt lat="42.792490" lon="-4.264468">
    <ele>902.7</ele>
    <time>2020-07-12T11:18:04Z</time>
    <name>Paseo de la Cascajera</name>
    <cmt></cmt>
    <desc></desc>
  </wpt>
  <wpt lat="42.792689" lon="-4.262057">
    <ele>897.6</ele>
    <time>2020-07-12T11:20:40Z</time>
    <name>Plaza de España</name>
    <cmt></cmt>
    <desc></desc>
  </wpt>
  <trk>
    <name>Paseo del loco - Presa del Embalse de Aguilar - Wikiloc</name>
    <cmt></cmt>
    <desc></desc>
    <trkseg>
      <trkpt lat="42.792877" lon="-4.260070">
        <ele>897.042</ele>
        <time>2020-07-12T11:41:50Z</time>
      </trkpt>
      <trkpt lat="42.792869" lon="-4.260255">
        <ele>897.022</ele>
        <time>2020-07-12T11:43:03Z</time>
      </trkpt>
      <trkpt lat="42.792572" lon="-4.259341">
        <ele>897.014</ele>
        <time>2020-07-12T11:44:48Z</time>
      </trkpt>
      <trkpt lat="42.792591" lon="-4.259539">
        <ele>897.008</ele>
        <time>2020-07-12T11:44:50Z</time>
      </trkpt>
      <trkpt lat="42.792613" lon="-4.259442">
        <ele>897.079</ele>
        <time>2020-07-12T11:45:04Z</time>
      </trkpt>
      <trkpt lat="42.791980" lon="-4.259370">
        <ele>897.466</ele>
        <time>2020-07-12T11:45:42Z</time>
      </trkpt>
      <trkpt lat="42.790661" lon="-4.258972">
        <ele>894.651</ele>
        <time>2020-07-12T11:47:05Z</time>
      </trkpt>
      <trkpt lat="42.790767" lon="-4.259058">
        <ele>894.619</ele>
        <time>2020-07-12T11:47:08Z</time>
      </trkpt>
      <trkpt lat="42.790503" lon="-4.258846">
        <ele>894.647</ele>
        <time>2020-07-12T11:47:16Z</time>
      </trkpt>
      <trkpt lat="42.790089" lon="-4.258735">
        <ele>899.732</ele>
        <time>2020-07-12T11:47:34Z</time>
      </trkpt>
      <trkpt lat="42.789965" lon="-4.258824">
        <ele>900.164</ele>
        <time>2020-07-12T11:47:47Z</time>
      </trkpt>
      <trkpt lat="42.789875" lon="-4.259396">
        <ele>895.046</ele>
        <time>2020-07-12T11:48:31Z</time>
      </trkpt>
      <trkpt lat="42.790246" lon="-4.259800">
        <ele>889.729</ele>
        <time>2020-07-12T11:48:59Z</time>
      </trkpt>
      <trkpt lat="42.790291" lon="-4.259649">
        <ele>889.400</ele>
        <time>2020-07-12T11:49:01Z</time>
      </trkpt>
      <trkpt lat="42.790301" lon="-4.259779">
        <ele>891.620</ele>
        <time>2020-07-12T11:49:03Z</time>
      </trkpt>
      <trkpt lat="42.790617" lon="-4.259787">
        <ele>890.408</ele>
        <time>2020-07-12T11:49:29Z</time>
      </trkpt>
      <trkpt lat="42.790853" lon="-4.260304">
        <ele>883.447</ele>
        <time>2020-07-12T11:49:57Z</time>
      </trkpt>
      <trkpt lat="42.791101" lon="-4.260335">
        <ele>885.494</ele>
        <time>2020-07-12T11:50:09Z</time>
      </trkpt>
      <trkpt lat="42.791548" lon="-4.261011">
        <ele>895.099</ele>
        <time>2020-07-12T11:51:00Z</time>
      </trkpt>
      <trkpt lat="42.791935" lon="-4.261860">
        <ele>889.187</ele>
        <time>2020-07-12T11:52:02Z</time>
      </trkpt>
      <trkpt lat="42.791812" lon="-4.263360">
        <ele>890.065</ele>
        <time>2020-07-12T11:53:07Z</time>
      </trkpt>
      <trkpt lat="42.791661" lon="-4.263729">
        <ele>884.540</ele>
        <time>2020-07-12T11:53:27Z</time>
      </trkpt>
      <trkpt lat="42.791532" lon="-4.264645">
        <ele>891.922</ele>
        <time>2020-07-12T11:54:15Z</time>
      </trkpt>
      <trkpt lat="42.791597" lon="-4.265418">
        <ele>883.054</ele>
        <time>2020-07-12T11:54:55Z</time>
      </trkpt>
      <trkpt lat="42.791513" lon="-4.265875">
        <ele>881.083</ele>
        <time>2020-07-12T11:55:30Z</time>
      </trkpt>
      <trkpt lat="42.791241" lon="-4.266350">
        <ele>890.825</ele>
        <time>2020-07-12T11:55:58Z</time>
      </trkpt>
      <trkpt lat="42.791305" lon="-4.266701">
        <ele>889.417</ele>
        <time>2020-07-12T11:56:15Z</time>
      </trkpt>
      <trkpt lat="42.791207" lon="-4.267081">
        <ele>891.908</ele>
        <time>2020-07-12T11:56:38Z</time>
      </trkpt>
      <trkpt lat="42.791065" lon="-4.267046">
        <ele>894.843</ele>
        <time>2020-07-12T11:56:47Z</time>
      </trkpt>
      <trkpt lat="42.791101" lon="-4.266863">
        <ele>895.490</ele>
        <time>2020-07-12T11:57:23Z</time>
      </trkpt>
      <trkpt lat="42.791245" lon="-4.267296">
        <ele>894.515</ele>
        <time>2020-07-12T11:58:03Z</time>
      </trkpt>
      <trkpt lat="42.791117" lon="-4.266935">
        <ele>893.513</ele>
        <time>2020-07-12T11:58:05Z</time>
      </trkpt>
      <trkpt lat="42.791147" lon="-4.267407">
        <ele>890.951</ele>
        <time>2020-07-12T11:58:42Z</time>
      </trkpt>
      <trkpt lat="42.791189" lon="-4.266971">
        <ele>892.766</ele>
        <time>2020-07-12T11:59:28Z</time>
      </trkpt>
      <trkpt lat="42.791097" lon="-4.267096">
        <ele>894.548</ele>
        <time>2020-07-12T12:00:00Z</time>
      </trkpt>
      <trkpt lat="42.791253" lon="-4.266938">
        <ele>897.020</ele>
        <time>2020-07-12T12:00:38Z</time>
      </trkpt>
      <trkpt lat="42.791108" lon="-4.267002">
        <ele>888.162</ele>
        <time>2020-07-12T12:00:56Z</time>
      </trkpt>
      <trkpt lat="42.791248" lon="-4.267295">
        <ele>882.583</ele>
        <time>2020-07-12T12:02:15Z</time>
      </trkpt>
      <trkpt lat="42.791166" lon="-4.266970">
        <ele>885.611</ele>
        <time>2020-07-12T12:04:22Z</time>
      </trkpt>
      <trkpt lat="42.791117" lon="-4.267127">
        <ele>889.608</ele>
        <time>2020-07-12T12:05:05Z</time>
      </trkpt>
      <trkpt lat="42.791595" lon="-4.267819">
        <ele>887.251</ele>
        <time>2020-07-12T12:05:52Z</time>
      </trkpt>
      <trkpt lat="42.791533" lon="-4.267934">
        <ele>888.718</ele>
        <time>2020-07-12T12:05:58Z</time>
      </trkpt>
      <trkpt lat="42.791700" lon="-4.268548">
        <ele>888.933</ele>
        <time>2020-07-12T12:06:26Z</time>
      </trkpt>
      <trkpt lat="42.792450" lon="-4.270551">
        <ele>884.621</ele>
        <time>2020-07-12T12:08:20Z</time>
      </trkpt>
      <trkpt lat="42.792843" lon="-4.271028">
        <ele>888.799</ele>
        <time>2020-07-12T12:09:02Z</time>
      </trkpt>
      <trkpt lat="42.793126" lon="-4.272032">
        <ele>885.584</ele>
        <time>2020-07-12T12:09:56Z</time>
      </trkpt>
      <trkpt lat="42.793182" lon="-4.272746">
        <ele>890.776</ele>
        <time>2020-07-12T12:10:38Z</time>
      </trkpt>
      <trkpt lat="42.793790" lon="-4.275189">
        <ele>884.488</ele>
        <time>2020-07-12T12:12:36Z</time>
      </trkpt>
      <trkpt lat="42.793764" lon="-4.275406">
        <ele>887.772</ele>
        <time>2020-07-12T12:12:46Z</time>
      </trkpt>
      <trkpt lat="42.793980" lon="-4.275653">
        <ele>886.113</ele>
        <time>2020-07-12T12:13:05Z</time>
      </trkpt>
      <trkpt lat="42.793956" lon="-4.275951">
        <ele>892.314</ele>
        <time>2020-07-12T12:13:16Z</time>
      </trkpt>
      <trkpt lat="42.794504" lon="-4.276600">
        <ele>885.908</ele>
        <time>2020-07-12T12:14:10Z</time>
      </trkpt>
      <trkpt lat="42.794567" lon="-4.277266">
        <ele>892.822</ele>
        <time>2020-07-12T12:14:36Z</time>
      </trkpt>
      <trkpt lat="42.794425" lon="-4.277348">
        <ele>892.079</ele>
        <time>2020-07-12T12:14:42Z</time>
      </trkpt>
      <trkpt lat="42.794302" lon="-4.277636">
        <ele>890.414</ele>
        <time>2020-07-12T12:14:56Z</time>
      </trkpt>
      <trkpt lat="42.794290" lon="-4.278287">
        <ele>895.032</ele>
        <time>2020-07-12T12:15:26Z</time>
      </trkpt>
      <trkpt lat="42.794188" lon="-4.278442">
        <ele>895.420</ele>
        <time>2020-07-12T12:15:35Z</time>
      </trkpt>
      <trkpt lat="42.794245" lon="-4.278939">
        <ele>898.485</ele>
        <time>2020-07-12T12:16:00Z</time>
      </trkpt>
      <trkpt lat="42.793965" lon="-4.279629">
        <ele>892.847</ele>
        <time>2020-07-12T12:16:48Z</time>
      </trkpt>
      <trkpt lat="42.793913" lon="-4.280022">
        <ele>896.879</ele>
        <time>2020-07-12T12:17:10Z</time>
      </trkpt>
      <trkpt lat="42.793800" lon="-4.280043">
        <ele>899.346</ele>
        <time>2020-07-12T12:17:14Z</time>
      </trkpt>
      <trkpt lat="42.793761" lon="-4.280186">
        <ele>899.988</ele>
        <time>2020-07-12T12:17:20Z</time>
      </trkpt>
      <trkpt lat="42.793754" lon="-4.280763">
        <ele>898.816</ele>
        <time>2020-07-12T12:17:47Z</time>
      </trkpt>
      <trkpt lat="42.793458" lon="-4.281967">
        <ele>899.308</ele>
        <time>2020-07-12T12:22:50Z</time>
      </trkpt>
      <trkpt lat="42.793254" lon="-4.283416">
        <ele>895.249</ele>
        <time>2020-07-12T12:23:54Z</time>
      </trkpt>
      <trkpt lat="42.793297" lon="-4.283827">
        <ele>894.836</ele>
        <time>2020-07-12T12:24:17Z</time>
      </trkpt>
      <trkpt lat="42.793158" lon="-4.284398">
        <ele>895.381</ele>
        <time>2020-07-12T12:24:44Z</time>
      </trkpt>
      <trkpt lat="42.793404" lon="-4.285169">
        <ele>902.259</ele>
        <time>2020-07-12T12:25:23Z</time>
      </trkpt>
      <trkpt lat="42.793242" lon="-4.285465">
        <ele>906.047</ele>
        <time>2020-07-12T12:25:45Z</time>
      </trkpt>
      <trkpt lat="42.793365" lon="-4.286145">
        <ele>906.492</ele>
        <time>2020-07-12T12:26:14Z</time>
      </trkpt>
      <trkpt lat="42.793738" lon="-4.286387">
        <ele>898.524</ele>
        <time>2020-07-12T12:26:44Z</time>
      </trkpt>
      <trkpt lat="42.793832" lon="-4.286300">
        <ele>894.956</ele>
        <time>2020-07-12T12:26:58Z</time>
      </trkpt>
      <trkpt lat="42.793962" lon="-4.286355">
        <ele>900.952</ele>
        <time>2020-07-12T12:27:31Z</time>
      </trkpt>
      <trkpt lat="42.793956" lon="-4.286559">
        <ele>899.853</ele>
        <time>2020-07-12T12:27:50Z</time>
      </trkpt>
      <trkpt lat="42.794137" lon="-4.286692">
        <ele>896.108</ele>
        <time>2020-07-12T12:28:09Z</time>
      </trkpt>
      <trkpt lat="42.794235" lon="-4.287181">
        <ele>884.708</ele>
        <time>2020-07-12T12:28:50Z</time>
      </trkpt>
      <trkpt lat="42.794811" lon="-4.287460">
        <ele>884.170</ele>
        <time>2020-07-12T12:29:23Z</time>
      </trkpt>
      <trkpt lat="42.795016" lon="-4.287175">
        <ele>883.727</ele>
        <time>2020-07-12T12:29:24Z</time>
      </trkpt>
      <trkpt lat="42.795219" lon="-4.286480">
        <ele>887.572</ele>
        <time>2020-07-12T12:29:58Z</time>
      </trkpt>
      <trkpt lat="42.795499" lon="-4.286385">
        <ele>891.580</ele>
        <time>2020-07-12T12:29:59Z</time>
      </trkpt>
      <trkpt lat="42.795384" lon="-4.286297">
        <ele>895.098</ele>
        <time>2020-07-12T12:30:18Z</time>
      </trkpt>
      <trkpt lat="42.795338" lon="-4.285739">
        <ele>902.483</ele>
        <time>2020-07-12T12:30:51Z</time>
      </trkpt>
      <trkpt lat="42.795457" lon="-4.285152">
        <ele>896.465</ele>
        <time>2020-07-12T12:31:18Z</time>
      </trkpt>
      <trkpt lat="42.795431" lon="-4.284613">
        <ele>894.167</ele>
        <time>2020-07-12T12:31:50Z</time>
      </trkpt>
      <trkpt lat="42.795562" lon="-4.284198">
        <ele>893.639</ele>
        <time>2020-07-12T12:32:06Z</time>
      </trkpt>
      <trkpt lat="42.795677" lon="-4.282176">
        <ele>896.701</ele>
        <time>2020-07-12T12:33:45Z</time>
      </trkpt>
      <trkpt lat="42.795979" lon="-4.281743">
        <ele>893.121</ele>
        <time>2020-07-12T12:34:07Z</time>
      </trkpt>
      <trkpt lat="42.795746" lon="-4.281180">
        <ele>893.208</ele>
        <time>2020-07-12T12:34:37Z</time>
      </trkpt>
      <trkpt lat="42.795924" lon="-4.280136">
        <ele>893.278</ele>
        <time>2020-07-12T12:35:25Z</time>
      </trkpt>
      <trkpt lat="42.795865" lon="-4.279513">
        <ele>899.745</ele>
        <time>2020-07-12T12:35:54Z</time>
      </trkpt>
      <trkpt lat="42.795918" lon="-4.279297">
        <ele>896.880</ele>
        <time>2020-07-12T12:36:02Z</time>
      </trkpt>
      <trkpt lat="42.796167" lon="-4.279275">
        <ele>900.878</ele>
        <time>2020-07-12T12:36:38Z</time>
      </trkpt>
      <trkpt lat="42.795993" lon="-4.279148">
        <ele>908.886</ele>
        <time>2020-07-12T12:38:14Z</time>
      </trkpt>
      <trkpt lat="42.796172" lon="-4.279349">
        <ele>904.811</ele>
        <time>2020-07-12T12:43:18Z</time>
      </trkpt>
      <trkpt lat="42.795958" lon="-4.279147">
        <ele>894.343</ele>
        <time>2020-07-12T12:43:33Z</time>
      </trkpt>
      <trkpt lat="42.795992" lon="-4.279249">
        <ele>896.865</ele>
        <time>2020-07-12T12:45:22Z</time>
      </trkpt>
      <trkpt lat="42.796229" lon="-4.279004">
        <ele>897.471</ele>
        <time>2020-07-12T12:47:21Z</time>
      </trkpt>
      <trkpt lat="42.795983" lon="-4.279200">
        <ele>893.441</ele>
        <time>2020-07-12T12:51:03Z</time>
      </trkpt>
      <trkpt lat="42.795921" lon="-4.279045">
        <ele>894.315</ele>
        <time>2020-07-12T12:53:19Z</time>
      </trkpt>
      <trkpt lat="42.795975" lon="-4.279202">
        <ele>887.608</ele>
        <time>2020-07-12T12:56:03Z</time>
      </trkpt>
      <trkpt lat="42.796223" lon="-4.276740">
        <ele>893.742</ele>
        <time>2020-07-12T13:01:27Z</time>
      </trkpt>
      <trkpt lat="42.795268" lon="-4.276001">
        <ele>886.419</ele>
        <time>2020-07-12T13:03:01Z</time>
      </trkpt>
      <trkpt lat="42.795254" lon="-4.275088">
        <ele>887.634</ele>
        <time>2020-07-12T13:03:45Z</time>
      </trkpt>
      <trkpt lat="42.794930" lon="-4.274670">
        <ele>891.672</ele>
        <time>2020-07-12T13:04:05Z</time>
      </trkpt>
      <trkpt lat="42.795181" lon="-4.274544">
        <ele>894.790</ele>
        <time>2020-07-12T13:04:07Z</time>
      </trkpt>
      <trkpt lat="42.795161" lon="-4.274263">
        <ele>897.345</ele>
        <time>2020-07-12T13:04:25Z</time>
      </trkpt>
      <trkpt lat="42.794592" lon="-4.273368">
        <ele>895.737</ele>
        <time>2020-07-12T13:05:17Z</time>
      </trkpt>
      <trkpt lat="42.794755" lon="-4.273317">
        <ele>898.159</ele>
        <time>2020-07-12T13:05:24Z</time>
      </trkpt>
      <trkpt lat="42.794873" lon="-4.272861">
        <ele>896.789</ele>
        <time>2020-07-12T13:05:45Z</time>
      </trkpt>
      <trkpt lat="42.794634" lon="-4.272335">
        <ele>895.406</ele>
        <time>2020-07-12T13:06:13Z</time>
      </trkpt>
      <trkpt lat="42.794736" lon="-4.272298">
        <ele>895.426</ele>
        <time>2020-07-12T13:06:14Z</time>
      </trkpt>
      <trkpt lat="42.794879" lon="-4.271807">
        <ele>895.508</ele>
        <time>2020-07-12T13:06:36Z</time>
      </trkpt>
      <trkpt lat="42.794961" lon="-4.271883">
        <ele>889.173</ele>
        <time>2020-07-12T13:06:45Z</time>
      </trkpt>
      <trkpt lat="42.795576" lon="-4.271600">
        <ele>891.630</ele>
        <time>2020-07-12T13:07:29Z</time>
      </trkpt>
      <trkpt lat="42.795572" lon="-4.270991">
        <ele>893.035</ele>
        <time>2020-07-12T13:08:12Z</time>
      </trkpt>
      <trkpt lat="42.795017" lon="-4.270183">
        <ele>895.033</ele>
        <time>2020-07-12T13:09:07Z</time>
      </trkpt>
      <trkpt lat="42.794778" lon="-4.269324">
        <ele>893.811</ele>
        <time>2020-07-12T13:09:51Z</time>
      </trkpt>
      <trkpt lat="42.794597" lon="-4.269138">
        <ele>883.886</ele>
        <time>2020-07-12T13:10:00Z</time>
      </trkpt>
      <trkpt lat="42.794645" lon="-4.269402">
        <ele>887.878</ele>
        <time>2020-07-12T13:10:18Z</time>
      </trkpt>
      <trkpt lat="42.794491" lon="-4.269529">
        <ele>891.820</ele>
        <time>2020-07-12T13:10:20Z</time>
      </trkpt>
      <trkpt lat="42.794525" lon="-4.269276">
        <ele>896.846</ele>
        <time>2020-07-12T13:10:24Z</time>
      </trkpt>
      <trkpt lat="42.794534" lon="-4.269355">
        <ele>899.088</ele>
        <time>2020-07-12T13:10:44Z</time>
      </trkpt>
      <trkpt lat="42.794634" lon="-4.269290">
        <ele>899.216</ele>
        <time>2020-07-12T13:11:01Z</time>
      </trkpt>
      <trkpt lat="42.794539" lon="-4.269397">
        <ele>899.408</ele>
        <time>2020-07-12T13:11:28Z</time>
      </trkpt>
      <trkpt lat="42.794568" lon="-4.269127">
        <ele>896.949</ele>
        <time>2020-07-12T13:12:07Z</time>
      </trkpt>
      <trkpt lat="42.794547" lon="-4.269368">
        <ele>893.366</ele>
        <time>2020-07-12T13:12:10Z</time>
      </trkpt>
      <trkpt lat="42.794406" lon="-4.269458">
        <ele>889.391</ele>
        <time>2020-07-12T13:12:56Z</time>
      </trkpt>
      <trkpt lat="42.794560" lon="-4.269266">
        <ele>886.629</ele>
        <time>2020-07-12T13:13:04Z</time>
      </trkpt>
      <trkpt lat="42.794310" lon="-4.268786">
        <ele>897.777</ele>
        <time>2020-07-12T13:13:30Z</time>
      </trkpt>
      <trkpt lat="42.794356" lon="-4.268449">
        <ele>898.412</ele>
        <time>2020-07-12T13:13:57Z</time>
      </trkpt>
      <trkpt lat="42.794027" lon="-4.268227">
        <ele>899.194</ele>
        <time>2020-07-12T13:14:03Z</time>
      </trkpt>
      <trkpt lat="42.793686" lon="-4.267812">
        <ele>900.496</ele>
        <time>2020-07-12T13:14:29Z</time>
      </trkpt>
      <trkpt lat="42.793637" lon="-4.267554">
        <ele>896.347</ele>
        <time>2020-07-12T13:14:50Z</time>
      </trkpt>
      <trkpt lat="42.793340" lon="-4.267146">
        <ele>892.529</ele>
        <time>2020-07-12T13:15:23Z</time>
      </trkpt>
      <trkpt lat="42.792799" lon="-4.265858">
        <ele>895.321</ele>
        <time>2020-07-12T13:16:37Z</time>
      </trkpt>
      <trkpt lat="42.792802" lon="-4.265651">
        <ele>896.208</ele>
        <time>2020-07-12T13:16:46Z</time>
      </trkpt>
      <trkpt lat="42.792965" lon="-4.265622">
        <ele>896.829</ele>
        <time>2020-07-12T13:17:02Z</time>
      </trkpt>
      <trkpt lat="42.792507" lon="-4.265486">
        <ele>897.686</ele>
        <time>2020-07-12T13:17:22Z</time>
      </trkpt>
      <trkpt lat="42.792501" lon="-4.264391">
        <ele>897.651</ele>
        <time>2020-07-12T13:18:01Z</time>
      </trkpt>
      <trkpt lat="42.792470" lon="-4.264527">
        <ele>901.459</ele>
        <time>2020-07-12T13:18:05Z</time>
      </trkpt>
      <trkpt lat="42.792376" lon="-4.263977">
        <ele>896.757</ele>
        <time>2020-07-12T13:18:49Z</time>
      </trkpt>
      <trkpt lat="42.792684" lon="-4.263387">
        <ele>896.422</ele>
        <time>2020-07-12T13:19:09Z</time>
      </trkpt>
      <trkpt lat="42.792492" lon="-4.262807">
        <ele>892.024</ele>
        <time>2020-07-12T13:19:40Z</time>
      </trkpt>
      <trkpt lat="42.792620" lon="-4.262439">
        <ele>890.456</ele>
        <time>2020-07-12T13:20:07Z</time>
      </trkpt>
      <trkpt lat="42.792398" lon="-4.262166">
        <ele>895.734</ele>
        <time>2020-07-12T13:20:23Z</time>
      </trkpt>
      <trkpt lat="42.792864" lon="-4.262066">
        <ele>896.255</ele>
        <time>2020-07-12T13:20:33Z</time>
      </trkpt>
      <trkpt lat="42.792709" lon="-4.262126">
        <ele>896.410</ele>
        <time>2020-07-12T13:20:36Z</time>
      </trkpt>
      <trkpt lat="42.792793" lon="-4.260237">
        <ele>888.308</ele>
        <time>2020-07-12T13:22:05Z</time>
      </trkpt>
      <trkpt lat="42.792895" lon="-4.260179">
        <ele>894.768</ele>
        <time>2020-07-12T13:22:12Z</time>
      </trkpt>
    </trkseg>
  </trk></gpx>